createdAt,value
2022-12-12T00:03:48.057Z,40.20
2022-12-12T00:08:47.756Z,41.60
2022-12-12T00:13:47.833Z,42.80
2022-12-12T00:18:47.728Z,40.70
2022-12-12T00:23:47.601Z,38.60
2022-12-12T00:28:47.520Z,40.50
2022-12-12T00:33:47.374Z,36.30
2022-12-12T00:38:47.411Z,40.00
2022-12-12T00:43:47.264Z,42.50
2022-12-12T00:48:47.220Z,39.80
2022-12-12T00:53:47.119Z,40.40
2022-12-12T00:58:47.127Z,43.90
2022-12-12T01:03:47.114Z,41.40
2022-12-12T01:08:46.990Z,41.50
2022-12-12T01:13:46.930Z,42.60
2022-12-12T01:18:46.837Z,45.70
2022-12-12T01:23:46.732Z,45.30
2022-12-12T01:28:47.108Z,44.80
2022-12-12T01:33:46.715Z,42.80
2022-12-12T01:38:46.560Z,43.40
2022-12-12T01:43:49.596Z,43.30
2022-12-12T01:48:46.480Z,40.10
2022-12-12T01:53:46.669Z,42.10
2022-12-12T01:58:46.433Z,43.70
2022-12-12T02:03:46.277Z,40.60
2022-12-12T02:08:46.187Z,39.20
2022-12-12T02:13:46.233Z,40.90
2022-12-12T02:18:46.085Z,45.60
2022-12-12T02:23:46.007Z,40.70
2022-12-12T02:28:46.001Z,41.10
2022-12-12T02:33:45.866Z,46.10
2022-12-12T02:38:45.820Z,45.90
2022-12-12T02:43:45.733Z,43.60
2022-12-12T02:48:45.732Z,44.30
2022-12-12T02:53:45.631Z,46.20
2022-12-12T02:58:45.624Z,42.60
2022-12-12T03:03:45.553Z,45.70
2022-12-12T03:08:45.393Z,43.20
2022-12-12T03:13:45.380Z,43.20
2022-12-12T03:18:45.376Z,43.20
2022-12-12T03:23:45.214Z,40.40
2022-12-12T03:28:45.218Z,40.40
2022-12-12T03:33:45.109Z,45.10
2022-12-12T03:38:45.031Z,41.90
2022-12-12T03:43:44.940Z,46.50
2022-12-12T03:48:44.926Z,44.20
2022-12-12T03:53:44.884Z,44.00
2022-12-12T03:58:44.782Z,43.70
2022-12-12T04:03:44.700Z,43.80
2022-12-12T04:08:44.641Z,43.60
2022-12-12T04:13:44.568Z,43.10
2022-12-12T04:18:44.525Z,44.80
2022-12-12T04:23:44.487Z,43.60
2022-12-12T04:28:44.442Z,40.60
2022-12-12T04:33:44.324Z,42.60
2022-12-12T04:38:44.277Z,41.90
2022-12-12T04:43:44.221Z,40.90
2022-12-12T04:48:44.373Z,45.80
2022-12-12T04:53:44.083Z,41.50
2022-12-12T04:58:44.048Z,44.70
2022-12-12T05:03:43.923Z,45.40
2022-12-12T05:08:43.927Z,48.40
2022-12-12T05:13:43.841Z,51.70
2022-12-12T05:18:43.740Z,47.80
2022-12-12T05:23:43.696Z,48.70
2022-12-12T05:28:43.653Z,46.20
2022-12-12T05:33:43.555Z,47.90
2022-12-12T05:38:43.519Z,49.10
2022-12-12T05:43:43.481Z,49.40
2022-12-12T05:48:43.385Z,51.90
2022-12-12T05:53:43.413Z,51.00
2022-12-12T05:58:43.246Z,46.80
2022-12-12T06:03:43.257Z,50.80
2022-12-12T06:08:43.198Z,48.40
2022-12-12T06:13:43.050Z,48.20
2022-12-12T06:18:42.961Z,44.70
2022-12-12T06:23:42.907Z,42.20
2022-12-12T06:28:42.886Z,42.60
2022-12-12T06:33:42.797Z,43.70
2022-12-12T06:38:42.782Z,43.10
2022-12-12T06:43:42.701Z,41.00
2022-12-12T06:48:42.658Z,39.40
2022-12-12T06:53:42.597Z,40.20
2022-12-12T06:58:42.513Z,45.10
2022-12-12T07:03:42.381Z,42.70
2022-12-12T07:08:42.376Z,44.00
2022-12-12T07:13:42.397Z,41.70
2022-12-12T07:18:42.200Z,41.10
2022-12-12T07:23:42.326Z,45.40
2022-12-12T07:28:42.186Z,44.70
2022-12-12T07:33:44.531Z,40.40
2022-12-12T07:38:42.021Z,40.90
2022-12-12T07:43:44.348Z,38.70
2022-12-12T07:48:41.905Z,42.40
2022-12-12T07:53:41.759Z,38.90
2022-12-12T07:58:41.727Z,47.10
2022-12-12T08:03:41.632Z,39.70
2022-12-12T08:08:41.600Z,41.90
2022-12-12T08:13:41.571Z,35.00
2022-12-12T08:18:41.537Z,32.70
2022-12-12T08:23:41.386Z,31.60
2022-12-12T08:28:41.400Z,34.20
2022-12-12T08:33:41.303Z,38.10
2022-12-12T08:38:41.245Z,36.40
2022-12-12T08:43:41.154Z,31.90
2022-12-12T08:48:41.082Z,36.90
2022-12-12T08:53:41.012Z,34.10
2022-12-12T08:58:40.957Z,33.00
2022-12-12T09:03:40.834Z,32.70
2022-12-12T09:08:40.826Z,30.50
2022-12-12T09:13:40.723Z,33.10
2022-12-12T09:18:46.358Z,33.60
2022-12-12T09:23:41.625Z,30.30
2022-12-12T09:28:40.559Z,29.20
2022-12-12T09:33:41.373Z,29.50
2022-12-12T09:38:40.509Z,28.40
2022-12-12T09:43:40.466Z,26.90
2022-12-12T09:48:40.724Z,31.50
2022-12-12T09:53:40.258Z,28.40
2022-12-12T09:58:46.722Z,29.50
2022-12-12T10:03:41.477Z,29.50
2022-12-12T10:08:40.006Z,28.80
2022-12-12T10:13:39.919Z,28.20
2022-12-12T10:18:39.897Z,29.20
2022-12-12T10:23:39.840Z,28.40
2022-12-12T10:28:39.804Z,29.20
2022-12-12T10:33:39.834Z,28.70
2022-12-12T10:38:39.637Z,29.20
2022-12-12T10:43:39.649Z,30.80
2022-12-12T10:48:39.617Z,29.50
2022-12-12T10:53:39.497Z,28.50
2022-12-12T10:58:39.414Z,31.40
2022-12-12T11:03:39.381Z,30.50
2022-12-12T11:08:39.420Z,30.00
2022-12-12T11:13:39.184Z,29.20
2022-12-12T11:18:39.093Z,31.00
2022-12-12T11:23:39.012Z,26.70
2022-12-12T11:28:39.053Z,29.50
2022-12-12T11:33:38.952Z,29.70
2022-12-12T11:38:38.865Z,27.00
2022-12-12T11:43:38.824Z,30.20
2022-12-12T11:48:38.776Z,30.90
2022-12-12T11:53:38.684Z,30.70
2022-12-12T11:58:38.615Z,32.30
2022-12-12T12:03:38.554Z,31.00
2022-12-12T12:08:38.493Z,29.20
2022-12-12T12:13:38.396Z,30.20
2022-12-12T12:18:38.375Z,33.00
2022-12-12T12:23:42.580Z,33.80
2022-12-12T12:28:39.224Z,35.00
2022-12-12T12:33:38.145Z,29.90
2022-12-12T12:38:38.335Z,33.00
2022-12-12T12:43:38.053Z,31.30
2022-12-12T12:48:37.962Z,32.10
2022-12-12T12:53:37.916Z,31.00
2022-12-12T12:58:37.841Z,29.50
2022-12-12T13:03:37.798Z,28.10
2022-12-12T13:08:37.808Z,28.90
2022-12-12T13:13:37.839Z,31.00
2022-12-12T13:18:45.719Z,32.00
2022-12-12T13:23:38.521Z,32.90
2022-12-12T13:28:37.504Z,30.10
2022-12-12T13:33:37.341Z,32.30
2022-12-12T13:38:37.277Z,34.30
2022-12-12T13:43:37.195Z,33.20
2022-12-12T13:48:41.438Z,32.30
2022-12-12T13:53:38.071Z,31.00
2022-12-12T13:58:37.083Z,26.60
2022-12-12T14:03:36.963Z,25.80
2022-12-12T14:08:36.928Z,28.80
2022-12-12T14:13:36.892Z,24.70
2022-12-12T14:18:36.764Z,25.20
2022-12-12T14:23:36.779Z,26.40
2022-12-12T14:28:36.667Z,26.60
2022-12-12T14:33:36.599Z,27.40
2022-12-12T14:38:36.545Z,24.00
2022-12-12T14:43:36.450Z,25.60
2022-12-12T14:48:36.404Z,26.10
2022-12-12T14:53:36.317Z,25.80
2022-12-12T14:58:36.290Z,27.80
2022-12-12T15:03:36.272Z,30.50
2022-12-12T15:08:36.155Z,30.50
2022-12-12T15:13:36.213Z,30.60
2022-12-12T15:18:36.108Z,30.90
2022-12-12T15:23:35.917Z,28.30
2022-12-12T15:28:35.874Z,32.30
2022-12-12T15:33:35.813Z,34.10
2022-12-12T15:38:35.789Z,34.80
2022-12-12T15:43:35.650Z,34.70
2022-12-12T15:48:35.589Z,36.40
2022-12-12T15:53:35.534Z,34.20
2022-12-12T15:58:35.523Z,37.90
2022-12-12T16:03:35.439Z,40.10
2022-12-12T16:08:35.422Z,37.50
2022-12-12T16:13:35.295Z,35.80
2022-12-12T16:18:35.210Z,37.40
2022-12-12T16:23:35.222Z,34.10
2022-12-12T16:28:35.084Z,36.50
2022-12-12T16:33:35.078Z,37.30
2022-12-12T16:38:34.959Z,38.10
2022-12-12T16:43:34.962Z,35.90
2022-12-12T16:48:34.829Z,34.50
2022-12-12T16:53:35.895Z,34.80
2022-12-12T16:58:34.780Z,35.80
2022-12-12T17:03:34.801Z,34.30
2022-12-12T17:08:34.623Z,33.90
2022-12-12T17:13:34.504Z,35.50
2022-12-12T17:18:34.507Z,32.80
2022-12-12T17:23:34.372Z,34.40
2022-12-12T17:28:34.354Z,35.00
2022-12-12T17:33:34.277Z,31.30
2022-12-12T17:38:34.200Z,32.00
2022-12-12T17:43:34.166Z,34.00
2022-12-12T17:48:34.124Z,30.10
2022-12-12T17:53:34.082Z,39.70
2022-12-12T17:58:33.931Z,33.50
2022-12-12T18:03:33.906Z,33.60
2022-12-12T18:08:33.867Z,38.00
2022-12-12T18:13:33.748Z,31.00
2022-12-12T18:18:33.751Z,32.50
2022-12-12T18:23:33.610Z,32.50
2022-12-12T18:28:33.629Z,34.70
2022-12-12T18:33:33.497Z,33.10
2022-12-12T18:38:33.491Z,40.10
2022-12-12T18:43:33.414Z,35.50
2022-12-12T18:48:33.304Z,35.70
2022-12-12T18:53:33.263Z,36.30
2022-12-12T18:58:33.161Z,37.40
2022-12-12T19:03:33.145Z,35.10
2022-12-12T19:08:33.106Z,34.80
2022-12-12T19:13:34.090Z,35.50
2022-12-12T19:18:32.921Z,35.00
2022-12-12T19:23:32.837Z,37.30
2022-12-12T19:28:32.830Z,38.20
2022-12-12T19:33:32.799Z,39.00
2022-12-12T19:38:32.657Z,35.00
2022-12-12T19:43:32.663Z,35.40
2022-12-12T19:48:32.553Z,35.80
2022-12-12T19:53:32.517Z,36.50
2022-12-12T19:58:35.139Z,34.70
2022-12-12T20:03:33.419Z,35.20
2022-12-12T20:08:32.311Z,36.10
2022-12-12T20:13:32.235Z,36.00
2022-12-12T20:18:32.371Z,35.60
2022-12-12T20:23:32.093Z,37.50
2022-12-12T20:28:32.049Z,36.90
2022-12-12T20:33:31.988Z,35.70
2022-12-12T20:38:31.898Z,36.40
2022-12-12T20:43:31.854Z,35.00
2022-12-12T20:48:31.758Z,37.60
2022-12-12T20:53:36.304Z,37.70
2022-12-12T20:58:31.688Z,36.00
2022-12-12T21:03:31.652Z,36.30
2022-12-12T21:08:31.634Z,34.90
2022-12-12T21:13:31.434Z,34.20
2022-12-12T21:18:31.450Z,33.70
2022-12-12T21:23:31.455Z,31.30
2022-12-12T21:28:31.252Z,36.90
2022-12-12T21:33:31.250Z,36.90
2022-12-12T21:38:31.183Z,34.90
2022-12-12T21:43:31.068Z,34.10
2022-12-12T21:48:31.004Z,33.50
2022-12-12T21:53:30.981Z,33.10
2022-12-12T21:58:30.880Z,32.60
2022-12-12T22:03:30.934Z,35.40
2022-12-12T22:08:30.817Z,34.00
2022-12-12T22:13:33.154Z,33.70
2022-12-12T22:18:31.630Z,30.90
2022-12-12T22:23:30.568Z,31.80
2022-12-12T22:28:30.568Z,30.50
2022-12-12T22:33:30.509Z,32.60
2022-12-12T22:38:32.260Z,33.60
2022-12-12T22:43:31.360Z,32.20
2022-12-12T22:48:30.257Z,33.30
2022-12-12T22:53:30.163Z,34.20
2022-12-12T22:58:30.178Z,30.90
2022-12-12T23:03:30.040Z,31.20
2022-12-12T23:08:30.057Z,29.90
2022-12-12T23:13:30.009Z,27.70
2022-12-12T23:18:29.890Z,27.00
2022-12-12T23:23:29.827Z,28.00
2022-12-12T23:28:29.858Z,25.30
2022-12-12T23:33:29.647Z,26.10
2022-12-12T23:38:29.760Z,28.90
2022-12-12T23:43:29.566Z,27.40
2022-12-12T23:48:29.446Z,23.90
2022-12-12T23:53:29.500Z,26.80
2022-12-12T23:58:29.408Z,27.40
